createdAt,value
2023-05-20T00:01:52.000Z,40.41
2023-05-20T00:06:59.433Z,40.69
2023-05-20T00:12:10.879Z,40.89
2023-05-20T00:17:18.192Z,40.91
2023-05-20T00:22:25.507Z,40.97
2023-05-20T00:27:32.922Z,40.94
2023-05-20T00:32:40.128Z,40.99
2023-05-20T00:37:50.712Z,40.98
2023-05-20T00:42:57.981Z,41.01
2023-05-20T00:48:05.316Z,40.96
2023-05-20T00:53:12.798Z,40.95
2023-05-20T00:58:23.131Z,40.88
2023-05-20T01:09:34.443Z,40.43
2023-05-20T01:15:56.913Z,40.25
2023-05-20T01:20:41.035Z,40.05
2023-05-20T01:37:04.114Z,40.08
2023-05-20T01:42:54.706Z,40.14
2023-05-20T01:48:59.746Z,40.21
2023-05-20T01:53:13.426Z,40.31
2023-05-20T01:59:05.157Z,40.38
2023-05-20T02:05:07.609Z,40.42
2023-05-20T02:10:07.921Z,40.60
2023-05-20T02:15:57.906Z,40.78
2023-05-20T02:21:45.557Z,40.83
2023-05-20T02:35:04.755Z,41.10
2023-05-20T02:40:44.500Z,41.19
2023-05-20T02:46:23.411Z,41.34
2023-05-20T02:51:55.207Z,41.41
2023-05-20T02:57:44.476Z,41.64
2023-05-20T03:03:39.343Z,41.69
2023-05-20T03:14:42.478Z,42.18
2023-05-20T03:20:06.572Z,42.44
2023-05-20T03:25:49.006Z,42.61
2023-05-20T03:31:39.563Z,42.70
2023-05-20T03:42:09.649Z,42.91
2023-05-20T03:46:22.744Z,43.11
2023-05-20T03:52:10.045Z,43.30
2023-05-20T03:58:37.795Z,43.43
2023-05-20T04:03:58.979Z,43.63
2023-05-20T04:08:58.378Z,43.89
2023-05-20T04:14:52.005Z,43.95
2023-05-20T04:20:17.520Z,44.02
2023-05-20T04:25:56.805Z,44.09
2023-05-20T04:31:34.622Z,44.15
2023-05-20T04:37:26.875Z,44.33
2023-05-20T04:43:13.508Z,44.44
2023-05-20T04:49:01.635Z,44.48
2023-05-20T04:56:10.407Z,44.62
2023-05-20T05:00:49.744Z,44.75
2023-05-20T05:06:36.965Z,44.84
2023-05-20T05:11:45.360Z,44.79
2023-05-20T05:16:55.623Z,44.80
2023-05-20T05:22:00.586Z,44.96
2023-05-20T05:27:08.331Z,45.09
2023-05-20T05:32:16.315Z,45.20
2023-05-20T05:37:37.515Z,44.98
2023-05-20T05:47:59.033Z,44.89
2023-05-20T05:53:47.249Z,44.95
2023-05-20T06:00:25.514Z,44.78
2023-05-20T06:05:32.659Z,44.97
2023-05-20T06:11:20.592Z,45.08
2023-05-20T06:18:33.047Z,44.74
2023-05-20T06:22:39.284Z,45.14
2023-05-20T06:32:56.482Z,45.24
2023-05-20T06:38:10.446Z,44.95
2023-05-20T06:43:25.484Z,45.01
2023-05-20T06:49:28.620Z,44.72
2023-05-20T06:56:30.290Z,44.96
2023-05-20T07:00:26.712Z,44.80
2023-05-20T07:06:12.658Z,44.82
2023-05-20T07:11:24.458Z,45.72
2023-05-20T07:17:27.050Z,45.26
2023-05-20T07:23:05.731Z,45.17
2023-05-20T07:28:19.380Z,45.07
2023-05-20T07:34:15.873Z,44.72
2023-05-20T07:44:38.330Z,44.95
2023-05-20T07:50:22.822Z,45.75
2023-05-20T07:56:10.352Z,45.00
2023-05-20T08:01:32.578Z,46.61
2023-05-20T08:06:40.351Z,45.91
2023-05-20T08:12:41.130Z,45.81
2023-05-20T08:19:15.768Z,45.57
2023-05-20T08:25:55.696Z,45.06
2023-05-20T08:30:22.137Z,45.36
2023-05-20T08:35:32.452Z,45.04
2023-05-20T08:40:40.990Z,45.34
2023-05-20T08:47:03.111Z,45.46
2023-05-20T08:58:24.962Z,45.60
2023-05-20T09:03:51.214Z,45.79
2023-05-20T09:09:29.464Z,47.25
2023-05-20T09:14:38.777Z,47.55
2023-05-20T09:19:46.055Z,48.00
2023-05-20T09:24:53.305Z,46.53
2023-05-20T09:30:00.507Z,46.34
2023-05-20T09:35:07.708Z,46.30
2023-05-20T09:40:14.971Z,46.09
2023-05-20T09:45:22.273Z,46.04
2023-05-20T09:50:37.335Z,46.15
2023-05-20T09:55:39.786Z,46.06
2023-05-20T10:00:47.429Z,45.88
2023-05-20T10:05:56.456Z,45.64
2023-05-20T10:11:25.712Z,45.64
2023-05-20T10:16:33.016Z,45.61
2023-05-20T10:21:40.553Z,45.52
2023-05-20T10:26:47.928Z,45.56
2023-05-20T10:31:55.235Z,45.42
2023-05-20T10:37:08.537Z,45.39
2023-05-20T10:42:16.848Z,45.29
2023-05-20T10:47:25.973Z,45.41
2023-05-20T10:52:31.645Z,45.16
2023-05-20T10:57:50.073Z,45.04
2023-05-20T11:02:56.113Z,45.01
2023-05-20T11:08:06.160Z,45.01
2023-05-20T11:13:50.563Z,45.17
2023-05-20T11:18:57.890Z,45.20
2023-05-20T11:24:06.293Z,45.39
2023-05-20T11:29:24.593Z,45.35
2023-05-20T11:34:57.575Z,45.33
2023-05-20T11:40:22.886Z,45.56
2023-05-20T11:45:23.202Z,45.47
2023-05-20T11:51:08.598Z,45.35
2023-05-20T11:55:43.586Z,45.18
2023-05-20T12:01:14.007Z,45.32
2023-05-20T12:06:21.954Z,45.45
2023-05-20T12:11:34.315Z,45.92
2023-05-20T12:16:41.758Z,45.72
2023-05-20T12:21:50.215Z,46.10
2023-05-20T12:27:05.227Z,45.65
2023-05-20T12:32:09.724Z,46.04
2023-05-20T12:38:54.896Z,45.89
2023-05-20T12:43:51.512Z,45.97
2023-05-20T12:48:42.578Z,46.26
2023-05-20T12:53:55.853Z,46.33
2023-05-20T13:00:00.502Z,46.49
2023-05-20T13:05:07.934Z,46.10
2023-05-20T13:10:30.343Z,46.66
2023-05-20T13:15:37.978Z,46.02
2023-05-20T13:20:45.376Z,46.87
2023-05-20T13:25:59.549Z,47.15
2023-05-20T13:31:07.225Z,46.85
2023-05-20T13:36:15.758Z,46.79
2023-05-20T13:41:23.925Z,46.49
2023-05-20T13:46:31.474Z,46.80
2023-05-20T13:51:39.232Z,47.79
2023-05-20T13:56:46.643Z,47.84
2023-05-20T14:01:54.071Z,47.38
2023-05-20T14:07:01.255Z,47.59
2023-05-20T14:12:26.899Z,48.01
2023-05-20T14:17:39.107Z,46.88
2023-05-20T14:22:46.661Z,47.66
2023-05-20T14:27:55.831Z,47.00
2023-05-20T14:33:03.529Z,47.28
2023-05-20T14:38:10.780Z,46.92
2023-05-20T14:43:19.132Z,48.85
2023-05-20T14:48:27.647Z,47.77
2023-05-20T14:53:39.782Z,48.33
2023-05-20T14:58:47.350Z,49.44
2023-05-20T15:03:54.842Z,49.67
2023-05-20T15:09:02.213Z,49.03
2023-05-20T15:14:09.966Z,50.07
2023-05-20T15:19:17.486Z,49.32
2023-05-20T15:24:26.756Z,48.82
2023-05-20T15:29:34.115Z,49.35
2023-05-20T15:34:41.483Z,49.20
2023-05-20T15:39:48.848Z,48.92
2023-05-20T15:44:56.536Z,49.08
2023-05-20T15:50:05.834Z,49.36
2023-05-20T15:55:14.604Z,49.08
2023-05-20T16:00:21.910Z,48.84
2023-05-20T16:05:33.998Z,49.77
2023-05-20T16:10:50.119Z,48.79
2023-05-20T16:16:00.935Z,50.45
2023-05-20T16:21:26.991Z,51.57
2023-05-20T16:27:14.555Z,49.33
2023-05-20T16:32:28.163Z,51.06
2023-05-20T16:37:58.067Z,50.90
2023-05-20T16:43:09.211Z,50.13
2023-05-20T16:48:22.478Z,50.26
2023-05-20T16:53:43.763Z,50.13
2023-05-20T16:58:46.321Z,50.96
2023-05-20T17:04:05.306Z,50.51
2023-05-20T17:09:12.676Z,50.84
2023-05-20T17:14:23.385Z,50.45
2023-05-20T17:19:29.788Z,51.78
2023-05-20T17:24:43.578Z,51.68
2023-05-20T17:29:55.259Z,52.80
2023-05-20T17:35:03.107Z,53.35
2023-05-20T17:40:11.132Z,53.90
2023-05-20T17:45:25.222Z,53.76
2023-05-20T17:50:32.046Z,53.06
2023-05-20T17:55:40.211Z,53.23
2023-05-20T18:00:55.453Z,54.22
2023-05-20T18:06:07.995Z,55.18
2023-05-20T18:11:15.910Z,54.94
2023-05-20T18:16:23.957Z,54.52
2023-05-20T18:21:38.119Z,54.83
2023-05-20T18:26:43.955Z,54.62
2023-05-20T18:31:51.977Z,54.80
2023-05-20T18:36:59.751Z,54.89
2023-05-20T18:42:09.429Z,54.60
2023-05-20T18:47:17.317Z,54.25
2023-05-20T18:52:26.359Z,54.57
2023-05-20T18:57:34.416Z,54.28
2023-05-20T19:02:42.488Z,53.76
2023-05-20T19:07:53.405Z,52.82
2023-05-20T19:13:01.785Z,53.59
2023-05-20T19:18:08.304Z,53.29
2023-05-20T19:23:16.740Z,53.59
2023-05-20T19:28:32.467Z,53.89
2023-05-20T19:33:38.345Z,53.42
2023-05-20T19:38:46.457Z,53.52
2023-05-20T19:43:54.624Z,53.28
2023-05-20T19:49:06.968Z,53.43
2023-05-20T19:54:48.788Z,52.73
2023-05-20T19:59:57.495Z,53.36
2023-05-20T20:05:07.493Z,52.38
2023-05-20T20:10:18.526Z,52.59
2023-05-20T20:15:41.047Z,52.63
2023-05-20T20:21:24.770Z,52.59
2023-05-20T20:27:07.868Z,52.50
2023-05-20T20:37:36.137Z,52.22
2023-05-20T20:42:44.465Z,52.47
2023-05-20T20:44:04.590Z,52.40
2023-05-20T20:48:30.296Z,51.67
2023-05-20T20:54:12.936Z,49.48
2023-05-20T20:59:27.471Z,49.55
2023-05-20T21:05:11.548Z,49.32
2023-05-20T21:10:26.053Z,49.16
2023-05-20T21:15:42.399Z,48.81
2023-05-20T21:21:06.550Z,48.73
2023-05-20T21:26:20.673Z,48.65
2023-05-20T21:31:23.858Z,48.49
2023-05-20T21:36:41.068Z,48.36
2023-05-20T21:42:01.874Z,48.20
2023-05-20T21:47:13.331Z,48.15
2023-05-20T21:52:21.040Z,48.48
2023-05-20T21:57:33.203Z,49.17
2023-05-20T22:03:16.684Z,48.59
2023-05-20T22:08:39.132Z,48.58
2023-05-20T22:14:21.471Z,48.85
2023-05-20T22:20:08.302Z,48.41
2023-05-20T22:25:18.944Z,48.91
2023-05-20T22:30:27.763Z,48.50
2023-05-20T22:36:27.351Z,48.85
2023-05-20T22:41:00.163Z,48.97
2023-05-20T22:46:09.161Z,48.38
2023-05-20T22:51:25.096Z,47.85
2023-05-20T22:56:44.735Z,48.04
2023-05-20T23:01:56.526Z,47.61
2023-05-20T23:07:48.628Z,47.35
2023-05-20T23:13:30.941Z,47.30
2023-05-20T23:18:51.393Z,47.29
2023-05-20T23:24:06.735Z,47.40
2023-05-20T23:35:15.277Z,47.23
2023-05-20T23:47:35.780Z,47.34
2023-05-20T23:56:58.675Z,47.39
